Time;durP1;ratioP1;P1;durP2;ratioP2;P2;SDS_P1;SDS_P2;PMS_P1;PMS_P2;Temp;Humidity;BMP_temperature;BMP_pressure;BME280_temperature;BME280_humidity;BME280_pressure;Samples;Min_cycle;Max_cycle;Signal;HPM_P1;HPM_P2
2023/06/22 00:02:13;;;;;;;8.00;7.30;;;29.10;52.70;;;;;;5019191;28;20943;-57
2023/06/22 00:04:39;;;;;;;7.23;6.63;;;29.10;52.50;;;;;;5022984;28;20447;-55
2023/06/22 00:07:05;;;;;;;9.87;9.07;;;29.10;52.30;;;;;;5021326;28;20205;-56
2023/06/22 00:09:31;;;;;;;11.17;7.87;;;29.20;52.20;;;;;;5019851;28;20609;-56
2023/06/22 00:11:57;;;;;;;8.10;7.40;;;29.20;52.20;;;;;;5022146;28;20225;-55
2023/06/22 00:14:22;;;;;;;8.60;7.80;;;29.20;52.20;;;;;;5018927;28;21133;-52
2023/06/22 00:16:48;;;;;;;8.07;7.37;;;29.20;52.20;;;;;;5027749;28;20599;-54
2023/06/22 00:19:15;;;;;;;9.90;8.90;;;29.20;52.20;;;;;;5022056;28;20188;-54
2023/06/22 00:21:42;;;;;;;11.47;9.13;;;29.20;52.10;;;;;;5020250;28;20196;-56
2023/06/22 00:24:07;;;;;;;9.13;8.43;;;29.20;52.20;;;;;;5025191;28;21973;-51
2023/06/22 00:26:33;;;;;;;10.27;8.87;;;29.20;52.20;;;;;;5020544;28;20542;-56
2023/06/22 00:28:59;;;;;;;10.47;9.23;;;29.20;52.30;;;;;;5020300;28;20213;-55
2023/06/22 00:31:24;;;;;;;9.50;8.43;;;29.10;52.30;;;;;;5024132;28;20209;-54
2023/06/22 00:33:50;;;;;;;8.50;7.73;;;29.10;52.60;;;;;;5027765;28;20233;-56
2023/06/22 00:36:17;;;;;;;9.40;8.50;;;29.10;52.70;;;;;;5021400;28;20190;-57
2023/06/22 00:38:43;;;;;;;9.13;8.30;;;29.00;52.80;;;;;;5021614;28;20452;-57
2023/06/22 00:41:09;;;;;;;9.20;8.40;;;28.90;53.00;;;;;;5018178;28;20440;-55
2023/06/22 00:43:34;;;;;;;8.07;7.30;;;28.90;53.00;;;;;;5024455;28;21512;-54
2023/06/22 00:46:00;;;;;;;9.40;8.53;;;28.90;53.00;;;;;;5027658;28;20201;-56
2023/06/22 00:48:26;;;;;;;9.20;8.20;;;28.90;52.80;;;;;;5020329;28;20276;-57
2023/06/22 00:50:53;;;;;;;8.83;7.90;;;29.00;52.80;;;;;;5024919;28;20205;-54
2023/06/22 00:53:19;;;;;;;9.47;8.40;;;29.00;53.00;;;;;;5024329;28;20278;-57
2023/06/22 00:55:46;;;;;;;8.47;7.77;;;28.90;52.80;;;;;;5017734;28;20466;-56
2023/06/22 00:58:13;;;;;;;9.60;8.80;;;28.90;52.80;;;;;;5018167;28;20228;-55
2023/06/22 01:00:42;;;;;;;8.13;7.33;;;28.90;52.70;;;;;;5015690;28;20483;-56
2023/06/22 01:03:10;;;;;;;8.73;7.87;;;28.90;52.70;;;;;;5019454;28;20497;-55
2023/06/22 01:05:37;;;;;;;8.63;7.73;;;28.90;52.70;;;;;;5016436;28;21024;-56
2023/06/22 01:08:12;;;;;;;8.90;8.10;;;28.90;52.80;;;;;;5024038;28;20471;-55
2023/06/22 01:10:52;;;;;;;9.50;8.03;;;28.90;52.90;;;;;;5021787;28;21037;-54
2023/06/22 01:13:43;;;;;;;8.57;7.77;;;28.80;52.80;;;;;;5018117;28;20488;-57
2023/06/22 01:16:19;;;;;;;9.37;8.40;;;28.90;52.80;;;;;;5015644;28;21716;-56
2023/06/22 01:18:46;;;;;;;9.37;8.47;;;28.80;52.90;;;;;;5019554;28;20523;-54
2023/06/22 01:21:17;;;;;;;9.50;7.30;;;28.80;52.80;;;;;;5019818;28;20845;-55
2023/06/22 01:24:02;;;;;;;8.33;7.60;;;28.90;52.70;;;;;;5020766;28;20547;-55
2023/06/22 01:26:54;;;;;;;8.90;7.90;;;28.90;52.70;;;;;;5019723;28;20526;-53
2023/06/22 01:29:22;;;;;;;9.10;8.20;;;28.80;52.60;;;;;;5022079;28;20428;-54
2023/06/22 01:31:49;;;;;;;9.70;8.80;;;28.90;52.50;;;;;;5009090;28;20701;-56
2023/06/22 01:34:16;;;;;;;8.47;7.23;;;28.80;52.60;;;;;;5024444;28;20534;-55
2023/06/22 01:36:43;;;;;;;8.83;7.37;;;28.80;52.60;;;;;;5027054;28;20440;-55
2023/06/22 01:39:09;;;;;;;8.67;7.87;;;28.80;53.10;;;;;;5026575;28;20444;-51
2023/06/22 01:41:37;;;;;;;8.47;7.70;;;28.80;52.60;;;;;;5026259;28;20501;-56
2023/06/22 01:44:07;;;;;;;10.03;8.37;;;28.80;52.50;;;;;;5021838;28;20466;-56
2023/06/22 01:46:35;;;;;;;8.30;7.53;;;28.80;52.50;;;;;;5012220;28;20470;-53
2023/06/22 01:49:04;;;;;;;10.53;8.97;;;28.70;52.50;;;;;;5028391;28;20450;-53
2023/06/22 01:51:30;;;;;;;9.33;8.40;;;28.70;53.00;;;;;;5029951;28;21227;-54
2023/06/22 01:53:56;;;;;;;10.00;9.00;;;28.60;52.90;;;;;;5022748;28;20537;-56
2023/06/22 01:56:22;;;;;;;7.40;6.70;;;28.70;53.00;;;;;;5023180;28;20197;-56
2023/06/22 01:59:06;;;;;;;9.17;8.27;;;28.60;53.00;;;;;;5029152;28;20213;-55
2023/06/22 02:01:41;;;;;;;8.87;7.90;;;28.70;53.00;;;;;;5025835;28;20285;-54
2023/06/22 02:04:12;;;;;;;11.03;9.93;;;28.60;53.00;;;;;;5024306;28;20435;-53
2023/06/22 02:06:42;;;;;;;7.70;7.10;;;28.70;52.90;;;;;;5024172;28;20526;-56
2023/06/22 02:09:14;;;;;;;9.97;8.87;;;28.70;52.80;;;;;;5017673;28;22537;-51
2023/06/22 02:11:43;;;;;;;8.47;7.60;;;28.70;52.70;;;;;;5024890;28;20466;-56
2023/06/22 02:14:09;;;;;;;8.43;7.43;;;28.60;53.40;;;;;;5014046;28;21002;-53
2023/06/22 02:16:35;;;;;;;8.30;7.60;;;28.50;53.40;;;;;;5017457;28;20440;-55
2023/06/22 02:19:05;;;;;;;9.27;8.47;;;28.50;53.30;;;;;;5017891;28;20194;-55
2023/06/22 02:21:32;;;;;;;10.30;8.70;;;28.50;53.10;;;;;;5012921;28;20464;-56
2023/06/22 02:23:58;;;;;;;9.40;8.40;;;28.60;53.20;;;;;;5022809;28;20526;-55
2023/06/22 02:26:25;;;;;;;9.17;8.43;;;28.60;53.20;;;;;;5016034;28;20439;-51
2023/06/22 02:28:51;;;;;;;9.63;8.70;;;28.50;53.20;;;;;;5018480;28;21302;-55
2023/06/22 02:31:17;;;;;;;9.07;8.13;;;28.60;53.20;;;;;;5025519;28;20448;-50
2023/06/22 02:33:43;;;;;;;10.37;9.27;;;28.60;53.00;;;;;;5017144;28;20304;-55
2023/06/22 02:36:09;;;;;;;8.60;7.80;;;28.40;53.70;;;;;;5027576;28;20247;-52
2023/06/22 02:38:37;;;;;;;8.37;7.57;;;28.40;53.90;;;;;;5018868;28;20440;-50
2023/06/22 02:41:03;;;;;;;10.20;9.10;;;28.30;53.90;;;;;;5029301;28;20200;-55
2023/06/22 02:43:29;;;;;;;9.73;8.90;;;28.30;53.80;;;;;;5027543;28;20444;-52
2023/06/22 02:45:55;;;;;;;9.70;8.90;;;28.30;53.90;;;;;;5021937;28;20252;-52
2023/06/22 02:48:20;;;;;;;10.23;9.23;;;28.30;53.80;;;;;;5018391;28;20193;-52
2023/06/22 02:50:46;;;;;;;11.70;9.47;;;28.40;53.80;;;;;;5018584;28;20472;-50
2023/06/22 02:53:12;;;;;;;11.03;9.90;;;28.30;53.60;;;;;;5020798;28;20225;-54
2023/06/22 02:55:39;;;;;;;13.43;9.73;;;28.30;53.60;;;;;;5019409;28;21132;-53
2023/06/22 02:58:05;;;;;;;8.83;8.03;;;28.30;53.70;;;;;;5016716;28;20228;-49
2023/06/22 03:00:31;;;;;;;7.60;6.90;;;28.30;53.80;;;;;;5016313;28;20531;-52
2023/06/22 03:02:57;;;;;;;10.33;8.33;;;28.30;53.60;;;;;;5018883;28;20190;-53
2023/06/22 03:05:23;;;;;;;9.57;8.63;;;28.30;53.50;;;;;;5022975;28;20452;-51
2023/06/22 03:07:49;;;;;;;9.20;8.20;;;28.30;53.60;;;;;;5019117;28;20440;-53
2023/06/22 03:10:15;;;;;;;10.40;7.33;;;28.30;53.60;;;;;;5025073;28;20193;-50
2023/06/22 03:12:42;;;;;;;8.70;7.80;;;28.30;53.50;;;;;;5021463;28;20495;-51
2023/06/22 03:15:09;;;;;;;7.83;7.13;;;28.30;53.50;;;;;;5017762;28;20440;-53
2023/06/22 03:17:36;;;;;;;8.87;8.07;;;28.30;53.30;;;;;;5016458;28;20445;-55
2023/06/22 03:20:08;;;;;;;8.23;7.53;;;28.30;53.30;;;;;;5016347;28;20818;-53
2023/06/22 03:22:38;;;;;;;10.60;9.10;;;28.30;53.20;;;;;;5025916;28;20444;-51
2023/06/22 03:25:09;;;;;;;9.87;8.87;;;28.30;53.00;;;;;;5025235;28;20476;-51
2023/06/22 03:27:36;;;;;;;8.90;8.10;;;28.30;53.10;;;;;;5015647;28;20990;-52
2023/06/22 03:30:02;;;;;;;9.43;8.63;;;28.30;53.10;;;;;;5011639;28;20425;-51
2023/06/22 03:32:27;;;;;;;8.60;7.80;;;28.30;53.20;;;;;;5020286;28;20473;-53
2023/06/22 03:34:53;;;;;;;8.67;7.87;;;28.30;53.20;;;;;;5015279;28;20554;-53
2023/06/22 03:37:19;;;;;;;8.17;7.37;;;28.30;53.20;;;;;;5017149;28;20223;-51
2023/06/22 03:39:44;;;;;;;8.53;7.83;;;28.30;53.10;;;;;;5018172;28;20185;-54
2023/06/22 03:42:10;;;;;;;9.10;8.20;;;28.30;53.10;;;;;;5021118;28;20244;-53
2023/06/22 03:44:36;;;;;;;11.40;8.50;;;28.30;53.20;;;;;;5020316;28;20643;-53
2023/06/22 03:47:03;;;;;;;10.63;9.03;;;28.30;53.10;;;;;;5021045;28;20227;-52
2023/06/22 03:49:29;;;;;;;8.23;7.43;;;28.30;53.00;;;;;;5018330;28;20440;-55
2023/06/22 03:51:55;;;;;;;10.17;9.17;;;28.30;53.20;;;;;;5015791;28;20916;-54
2023/06/22 03:54:20;;;;;;;11.83;8.50;;;28.20;53.20;;;;;;5016039;28;20208;-55
2023/06/22 03:56:46;;;;;;;10.27;9.37;;;28.20;53.40;;;;;;5014423;28;20224;-54
2023/06/22 03:59:11;;;;;;;9.30;7.80;;;28.20;53.30;;;;;;5016503;28;20197;-55
2023/06/22 04:01:37;;;;;;;8.13;7.30;;;28.20;53.20;;;;;;5016530;28;20329;-55
2023/06/22 04:04:03;;;;;;;9.17;8.33;;;28.20;53.30;;;;;;5018343;28;20197;-50
2023/06/22 04:06:28;;;;;;;8.80;8.10;;;28.20;53.20;;;;;;5017031;28;20675;-55
2023/06/22 04:08:54;;;;;;;9.20;8.40;;;28.20;53.40;;;;;;5014439;28;20185;-53
2023/06/22 04:11:19;;;;;;;9.00;8.20;;;28.20;53.30;;;;;;5022891;28;20247;-53
2023/06/22 04:13:45;;;;;;;8.73;7.70;;;28.30;53.20;;;;;;5018565;28;20657;-51
2023/06/22 04:16:11;;;;;;;7.87;7.27;;;28.20;53.20;;;;;;5022425;28;20332;-52
2023/06/22 04:18:36;;;;;;;8.23;7.50;;;28.30;53.20;;;;;;5025313;28;20205;-54
2023/06/22 04:21:02;;;;;;;7.87;7.23;;;28.30;53.10;;;;;;5014197;28;20198;-55
2023/06/22 04:23:28;;;;;;;9.20;8.30;;;28.20;53.20;;;;;;5016150;28;20276;-53
2023/06/22 04:25:56;;;;;;;9.50;7.90;;;28.20;53.30;;;;;;5024657;28;20589;-54
2023/06/22 04:28:22;;;;;;;9.63;8.77;;;28.20;53.50;;;;;;5021527;28;20194;-53
2023/06/22 04:30:47;;;;;;;7.33;6.73;;;28.20;53.50;;;;;;5024690;28;20458;-52
2023/06/22 04:33:17;;;;;;;9.10;7.70;;;28.20;53.30;;;;;;5028146;28;20228;-55
2023/06/22 04:35:45;;;;;;;8.70;7.90;;;28.30;53.20;;;;;;5016927;28;20574;-53
2023/06/22 04:38:13;;;;;;;10.00;8.83;;;28.30;53.20;;;;;;5018821;28;20966;-56
2023/06/22 04:40:39;;;;;;;10.63;9.53;;;28.30;53.10;;;;;;5024233;28;20451;-54
2023/06/22 04:43:06;;;;;;;10.97;8.40;;;28.30;53.20;;;;;;5021180;28;20518;-54
2023/06/22 04:45:32;;;;;;;7.57;6.97;;;28.20;53.60;;;;;;5025313;28;20439;-55
2023/06/22 04:47:58;;;;;;;13.80;7.73;;;28.20;53.60;;;;;;5028397;28;20455;-51
2023/06/22 04:50:23;;;;;;;9.20;8.40;;;28.20;53.60;;;;;;5026150;28;20813;-54
2023/06/22 04:52:51;;;;;;;13.80;9.03;;;28.30;53.60;;;;;;5019515;28;20499;-51
2023/06/22 04:55:18;;;;;;;10.00;8.00;;;28.10;53.80;;;;;;5025262;28;20440;-54
2023/06/22 04:57:48;;;;;;;8.70;7.80;;;28.20;53.70;;;;;;5024013;28;20448;-52
2023/06/22 05:00:17;;;;;;;10.20;7.57;;;28.20;53.80;;;;;;5020466;28;20936;-55
2023/06/22 05:02:44;;;;;;;7.63;7.03;;;28.20;53.50;;;;;;5016263;28;20468;-52
2023/06/22 05:05:13;;;;;;;8.57;7.80;;;28.30;53.40;;;;;;5021911;28;20436;-53
2023/06/22 05:07:42;;;;;;;8.30;7.50;;;28.30;53.40;;;;;;5011619;28;20440;-54
2023/06/22 05:10:08;;;;;;;9.60;7.23;;;28.40;53.30;;;;;;5025379;28;20448;-53
2023/06/22 05:12:34;;;;;;;10.27;7.53;;;28.50;53.20;;;;;;5026352;28;20502;-54
2023/06/22 05:15:01;;;;;;;9.23;8.27;;;28.50;53.20;;;;;;5019797;28;20944;-55
2023/06/22 05:17:27;;;;;;;7.93;7.20;;;28.50;53.10;;;;;;5016043;28;20204;-53
2023/06/22 05:19:53;;;;;;;8.27;7.47;;;28.60;53.00;;;;;;5026555;28;20455;-55
2023/06/22 05:22:19;;;;;;;8.90;7.93;;;28.60;52.90;;;;;;5030423;28;20193;-52
2023/06/22 05:24:44;;;;;;;9.33;8.53;;;28.70;52.90;;;;;;5019204;28;20283;-54
2023/06/22 05:27:10;;;;;;;7.87;7.00;;;28.70;52.80;;;;;;5030813;28;20231;-53
2023/06/22 05:29:37;;;;;;;8.43;7.73;;;28.80;52.80;;;;;;5023967;28;20197;-54
2023/06/22 05:32:03;;;;;;;9.97;7.43;;;28.80;52.80;;;;;;5024891;28;20196;-53
2023/06/22 05:34:29;;;;;;;8.10;7.30;;;28.90;52.60;;;;;;5032006;28;20475;-55
2023/06/22 05:36:54;;;;;;;11.00;8.23;;;28.90;52.70;;;;;;5031053;28;20474;-54
2023/06/22 05:39:20;;;;;;;8.33;7.53;;;28.90;52.70;;;;;;5030596;28;21045;-52
2023/06/22 05:41:46;;;;;;;8.53;7.43;;;28.90;52.80;;;;;;5018954;28;20554;-53
2023/06/22 05:44:12;;;;;;;10.67;8.10;;;28.90;52.70;;;;;;5031510;28;20744;-53
2023/06/22 05:46:44;;;;;;;8.47;7.60;;;28.90;52.70;;;;;;5032257;28;20440;-54
2023/06/22 05:49:10;;;;;;;8.10;7.07;;;28.90;52.70;;;;;;5031452;28;20280;-54
2023/06/22 05:51:35;;;;;;;8.50;7.70;;;29.00;52.70;;;;;;5032818;28;20543;-51
2023/06/22 05:54:01;;;;;;;12.13;8.17;;;29.00;52.60;;;;;;5030757;28;20492;-54
2023/06/22 05:56:26;;;;;;;9.87;7.77;;;29.10;52.60;;;;;;5023749;28;20958;-53
2023/06/22 05:58:53;;;;;;;7.10;6.60;;;29.10;52.60;;;;;;5031369;28;20206;-54
2023/06/22 06:01:19;;;;;;;9.20;7.50;;;29.10;52.60;;;;;;5032284;28;20225;-54
2023/06/22 06:03:44;;;;;;;9.30;7.53;;;29.20;52.50;;;;;;5027911;28;20467;-55
2023/06/22 06:06:10;;;;;;;8.80;8.00;;;29.20;52.50;;;;;;5026708;28;20208;-55
2023/06/22 06:08:39;;;;;;;13.00;9.00;;;29.20;52.30;;;;;;5033994;28;20645;-52
2023/06/22 06:11:05;;;;;;;9.50;8.60;;;29.20;52.60;;;;;;5032946;28;20444;-49
2023/06/22 06:13:31;;;;;;;9.17;8.27;;;29.20;52.60;;;;;;5026008;28;20565;-54
2023/06/22 06:15:57;;;;;;;9.47;8.57;;;29.20;52.60;;;;;;5027718;28;20483;-52
2023/06/22 06:18:23;;;;;;;9.87;8.33;;;29.10;52.80;;;;;;5027389;28;20197;-53
2023/06/22 06:20:48;;;;;;;9.80;8.70;;;28.30;54.60;;;;;;5029050;28;20247;-49
2023/06/22 06:23:14;;;;;;;9.93;8.73;;;28.40;55.00;;;;;;5031375;28;20247;-52
2023/06/22 06:25:40;;;;;;;9.27;7.87;;;28.50;54.70;;;;;;5031913;28;20267;-51
2023/06/22 06:28:05;;;;;;;8.60;7.70;;;28.60;54.70;;;;;;5029706;28;20197;-52
2023/06/22 06:30:31;;;;;;;12.30;8.90;;;28.80;54.20;;;;;;5027261;28;20186;-54
2023/06/22 06:32:56;;;;;;;8.80;7.90;;;28.80;53.90;;;;;;5029280;28;20220;-54
2023/06/22 06:35:22;;;;;;;8.63;7.13;;;28.90;54.00;;;;;;5032131;28;20827;-52
2023/06/22 06:37:49;;;;;;;12.97;8.77;;;28.80;53.80;;;;;;5028119;28;20189;-55
2023/06/22 06:40:16;;;;;;;42.63;11.77;;;28.90;53.90;;;;;;5025202;28;20190;-50
2023/06/22 06:42:44;;;;;;;13.90;9.63;;;29.00;53.90;;;;;;5020967;28;21202;-53
2023/06/22 06:45:25;;;;;;;9.23;8.27;;;29.10;53.60;;;;;;5025244;28;20448;-49
2023/06/22 06:47:51;;;;;;;8.53;7.63;;;29.20;53.20;;;;;;5022934;28;20458;-52
2023/06/22 06:50:18;;;;;;;16.70;9.60;;;29.30;53.20;;;;;;5017140;28;20461;-51
2023/06/22 06:52:44;;;;;;;8.53;7.63;;;29.30;52.70;;;;;;5016345;28;20491;-54
2023/06/22 06:55:11;;;;;;;9.90;7.30;;;29.30;52.50;;;;;;5026579;28;20440;-53
2023/06/22 06:57:38;;;;;;;8.40;6.50;;;29.30;53.00;;;;;;5025704;28;20482;-51
2023/06/22 07:00:09;;;;;;;9.23;7.30;;;29.50;53.10;;;;;;5028651;28;20436;-48
2023/06/22 07:02:35;;;;;;;7.87;7.00;;;29.70;52.40;;;;;;5029332;28;20506;-50
2023/06/22 07:05:04;;;;;;;7.43;6.83;;;29.90;52.20;;;;;;5011619;28;20429;-49
2023/06/22 07:07:29;;;;;;;7.87;7.17;;;30.00;51.90;;;;;;5027847;28;20985;-51
2023/06/22 07:09:55;;;;;;;6.90;6.20;;;30.30;51.20;;;;;;5024701;28;20444;-50
2023/06/22 07:12:21;;;;;;;8.40;7.57;;;30.30;50.90;;;;;;5025455;28;20233;-52
2023/06/22 07:14:46;;;;;;;7.47;6.47;;;30.50;50.80;;;;;;5026769;28;20217;-52
2023/06/22 07:17:12;;;;;;;9.63;6.67;;;30.50;50.60;;;;;;5029550;28;20283;-50
2023/06/22 07:19:38;;;;;;;7.13;6.17;;;30.60;49.50;;;;;;5025158;28;20247;-51
2023/06/22 07:22:04;;;;;;;12.70;6.70;;;30.70;49.70;;;;;;5023136;28;20186;-50
2023/06/22 07:24:30;;;;;;;8.03;6.27;;;30.60;49.70;;;;;;5012590;28;20962;-49
2023/06/22 07:26:58;;;;;;;6.40;5.90;;;30.60;50.70;;;;;;5021530;28;20567;-54
2023/06/22 07:29:24;;;;;;;6.50;5.90;;;30.80;49.40;;;;;;5024613;28;20213;-50
2023/06/22 07:31:54;;;;;;;6.20;5.70;;;30.80;48.10;;;;;;5015691;28;20449;-50
2023/06/22 07:34:19;;;;;;;8.10;6.00;;;30.70;48.60;;;;;;5016883;28;20459;-49
2023/06/22 07:36:46;;;;;;;6.37;5.50;;;30.80;48.60;;;;;;5025600;28;20440;-52
2023/06/22 07:39:12;;;;;;;5.73;5.10;;;30.90;48.10;;;;;;5020879;28;20725;-51
2023/06/22 07:41:40;;;;;;;14.07;6.63;;;30.90;47.30;;;;;;5029118;28;20458;-51
2023/06/22 07:44:06;;;;;;;7.37;5.17;;;30.80;48.10;;;;;;5024388;28;20448;-51
2023/06/22 07:46:32;;;;;;;8.60;5.37;;;30.70;47.60;;;;;;5027745;28;20447;-51
2023/06/22 07:48:59;;;;;;;7.73;5.70;;;30.60;47.80;;;;;;5025458;28;20200;-50
2023/06/22 07:51:25;;;;;;;6.60;5.30;;;30.40;48.60;;;;;;5027939;28;20487;-53
2023/06/22 07:53:50;;;;;;;9.40;5.00;;;30.60;48.30;;;;;;5021484;28;20619;-50
2023/06/22 07:56:19;;;;;;;6.23;5.60;;;30.30;48.10;;;;;;5022266;28;20196;-53
2023/06/22 07:58:46;;;;;;;5.57;4.97;;;30.60;48.30;;;;;;5027120;28;20217;-49
2023/06/22 08:01:12;;;;;;;8.83;5.17;;;31.00;48.00;;;;;;5020319;28;20809;-53
2023/06/22 08:03:39;;;;;;;8.90;5.30;;;31.40;46.70;;;;;;5015182;28;20854;-52
2023/06/22 08:06:05;;;;;;;11.40;5.23;;;31.20;46.60;;;;;;5019760;28;21029;-50
2023/06/22 08:08:31;;;;;;;6.00;5.10;;;31.50;46.40;;;;;;5020950;28;22313;-54
2023/06/22 08:10:57;;;;;;;8.20;4.80;;;31.80;45.80;;;;;;5017408;28;20522;-55
2023/06/22 08:13:22;;;;;;;9.60;5.60;;;31.70;46.40;;;;;;5025194;28;20957;-53
2023/06/22 08:15:49;;;;;;;7.67;4.87;;;31.90;45.60;;;;;;5027591;28;20204;-49
2023/06/22 08:18:15;;;;;;;6.40;5.80;;;31.90;45.40;;;;;;5021696;28;20185;-53
2023/06/22 08:20:41;;;;;;;7.40;6.10;;;32.00;45.00;;;;;;5025109;28;20535;-51
2023/06/22 08:23:06;;;;;;;7.00;5.20;;;32.20;44.60;;;;;;5022177;28;21278;-53
2023/06/22 08:25:34;;;;;;;6.07;5.10;;;32.40;44.20;;;;;;5025906;28;20201;-55
2023/06/22 08:28:00;;;;;;;7.03;5.50;;;32.80;44.70;;;;;;5027439;28;20224;-53
2023/06/22 08:30:25;;;;;;;7.97;4.93;;;33.10;43.10;;;;;;5022843;28;20466;-57
2023/06/22 08:32:51;;;;;;;6.10;5.50;;;33.50;43.20;;;;;;5017146;28;20902;-56
2023/06/22 08:35:17;;;;;;;7.10;5.33;;;33.60;41.90;;;;;;5014867;28;20727;-54
2023/06/22 08:37:43;;;;;;;8.97;5.10;;;33.70;41.70;;;;;;5015615;28;20200;-54
2023/06/22 08:40:09;;;;;;;7.00;5.23;;;33.90;41.20;;;;;;5024042;28;20276;-54
2023/06/22 08:42:40;;;;;;;7.70;5.23;;;34.20;41.00;;;;;;5024780;28;20192;-54
2023/06/22 08:45:06;;;;;;;8.00;6.13;;;34.20;40.70;;;;;;5019629;28;20444;-55
2023/06/22 08:47:32;;;;;;;9.33;5.47;;;34.30;40.20;;;;;;5022842;28;20468;-53
2023/06/22 08:49:57;;;;;;;11.27;5.67;;;34.50;40.30;;;;;;5015339;28;20436;-52
2023/06/22 08:52:23;;;;;;;7.33;5.50;;;34.40;40.60;;;;;;5020903;28;20225;-55
2023/06/22 08:54:49;;;;;;;8.00;5.27;;;34.40;41.10;;;;;;5018973;28;20215;-56
2023/06/22 08:57:15;;;;;;;7.00;5.27;;;34.50;40.30;;;;;;5014131;28;20589;-57
2023/06/22 08:59:41;;;;;;;7.23;6.20;;;34.80;41.00;;;;;;5020598;28;20208;-53
2023/06/22 09:02:07;;;;;;;7.33;5.33;;;35.00;39.90;;;;;;5025771;28;20483;-56
2023/06/22 09:04:36;;;;;;;8.90;5.47;;;35.10;39.20;;;;;;5015632;28;20451;-57
2023/06/22 09:07:02;;;;;;;22.40;7.67;;;35.20;38.90;;;;;;5025672;28;20474;-58
2023/06/22 09:09:28;;;;;;;9.23;5.50;;;35.20;39.00;;;;;;5027579;28;20444;-58
2023/06/22 09:11:53;;;;;;;9.17;5.20;;;35.30;39.40;;;;;;5023269;28;20440;-57
2023/06/22 09:14:19;;;;;;;9.17;5.43;;;35.40;39.80;;;;;;5019692;28;20324;-57
2023/06/22 09:16:45;;;;;;;11.77;5.57;;;35.60;39.60;;;;;;5022900;28;20641;-57
2023/06/22 09:19:10;;;;;;;8.20;5.90;;;35.70;38.20;;;;;;5020146;28;20209;-57
2023/06/22 09:21:36;;;;;;;6.27;5.60;;;35.90;37.10;;;;;;5024356;28;20201;-57
2023/06/22 09:24:02;;;;;;;9.60;5.53;;;36.00;37.60;;;;;;5020232;28;20239;-57
2023/06/22 09:26:28;;;;;;;9.00;5.20;;;36.10;37.50;;;;;;5027924;28;20296;-56
2023/06/22 09:28:54;;;;;;;16.80;9.97;;;36.20;36.90;;;;;;5024431;28;20538;-57
2023/06/22 09:31:25;;;;;;;23.20;10.47;;;36.40;37.00;;;;;;5024292;28;20282;-57
2023/06/22 09:33:54;;;;;;;8.20;5.60;;;36.60;37.70;;;;;;5023315;28;20224;-58
2023/06/22 09:36:20;;;;;;;7.00;5.30;;;36.70;36.40;;;;;;5017696;28;20497;-57
2023/06/22 09:38:46;;;;;;;8.80;6.13;;;36.70;36.10;;;;;;5022833;28;20930;-57
2023/06/22 09:41:11;;;;;;;6.43;5.63;;;36.70;36.50;;;;;;5022108;28;20447;-58
2023/06/22 09:43:37;;;;;;;7.77;5.97;;;36.50;37.90;;;;;;5019937;28;20284;-58
2023/06/22 09:46:02;;;;;;;6.13;5.43;;;36.60;38.00;;;;;;5018204;28;20200;-57
2023/06/22 09:48:30;;;;;;;8.63;5.87;;;36.70;37.10;;;;;;5024397;28;20193;-57
2023/06/22 09:50:55;;;;;;;7.80;6.07;;;36.90;36.80;;;;;;5023226;28;20269;-57
2023/06/22 09:53:21;;;;;;;10.63;5.30;;;36.90;36.50;;;;;;5027914;28;21222;-58
2023/06/22 09:55:47;;;;;;;9.53;5.73;;;37.10;35.90;;;;;;5017364;28;20272;-57
2023/06/22 09:58:12;;;;;;;7.47;6.10;;;37.30;36.00;;;;;;5021929;28;20633;-58
2023/06/22 10:00:38;;;;;;;15.40;6.57;;;37.40;36.20;;;;;;5019684;28;20204;-59
2023/06/22 10:03:03;;;;;;;12.17;6.03;;;37.40;35.90;;;;;;5024794;28;20189;-57
2023/06/22 10:05:29;;;;;;;8.53;5.27;;;37.40;35.50;;;;;;5025932;28;20216;-57
2023/06/22 10:07:55;;;;;;;9.10;6.00;;;37.50;35.90;;;;;;5027009;28;20846;-58
2023/06/22 10:10:20;;;;;;;7.70;6.27;;;37.60;36.30;;;;;;5023363;28;20227;-57
2023/06/22 10:12:48;;;;;;;9.60;6.30;;;37.80;35.90;;;;;;5027666;28;20271;-58
2023/06/22 10:15:14;;;;;;;11.53;6.67;;;38.10;35.50;;;;;;5024983;28;20254;-58
2023/06/22 10:17:40;;;;;;;11.30;6.93;;;38.30;34.30;;;;;;5027083;28;20551;-57
2023/06/22 10:20:13;;;;;;;7.20;5.93;;;38.50;33.90;;;;;;5026525;28;20518;-58
2023/06/22 10:22:42;;;;;;;7.90;5.97;;;38.50;33.90;;;;;;5026000;28;20219;-57
2023/06/22 10:25:08;;;;;;;8.70;6.20;;;38.60;34.20;;;;;;5023414;28;20539;-57
2023/06/22 10:27:34;;;;;;;8.00;6.43;;;38.60;33.60;;;;;;5015314;28;20444;-57
2023/06/22 10:29:59;;;;;;;9.80;6.17;;;38.50;34.00;;;;;;5026381;28;20546;-57
2023/06/22 10:32:25;;;;;;;10.77;6.80;;;38.00;33.70;;;;;;5029021;28;20216;-57
2023/06/22 10:34:50;;;;;;;8.00;6.47;;;37.90;34.50;;;;;;5027334;28;20307;-57
2023/06/22 10:37:16;;;;;;;9.47;6.30;;;37.40;34.90;;;;;;5029697;28;20782;-58
2023/06/22 10:39:41;;;;;;;6.30;5.50;;;37.00;35.00;;;;;;5019373;28;20189;-58
2023/06/22 10:42:07;;;;;;;6.40;5.67;;;37.00;35.30;;;;;;5011952;28;20205;-57
2023/06/22 10:44:33;;;;;;;10.60;6.63;;;37.00;35.90;;;;;;5027662;28;20220;-58
2023/06/22 10:46:58;;;;;;;9.37;6.20;;;37.00;35.50;;;;;;5010786;28;20200;-58
2023/06/22 10:49:24;;;;;;;7.33;5.67;;;37.10;35.50;;;;;;5026545;28;20276;-58
2023/06/22 10:51:49;;;;;;;7.20;5.80;;;37.50;34.60;;;;;;5023674;28;20208;-58
2023/06/22 10:54:18;;;;;;;7.13;6.23;;;37.30;34.20;;;;;;5028985;28;20259;-58
2023/06/22 10:56:43;;;;;;;10.00;6.07;;;37.30;34.70;;;;;;5021899;28;20189;-58
2023/06/22 10:59:09;;;;;;;7.00;6.30;;;37.50;34.10;;;;;;5027914;28;20809;-58
2023/06/22 11:01:34;;;;;;;12.30;6.57;;;37.60;33.80;;;;;;5020938;28;20243;-57
2023/06/22 11:04:00;;;;;;;77.50;13.47;;;37.40;34.90;;;;;;5026430;28;20188;-58
2023/06/22 11:06:26;;;;;;;19.07;8.53;;;36.90;34.70;;;;;;5028850;28;20192;-57
2023/06/22 11:08:51;;;;;;;10.57;6.83;;;37.10;34.50;;;;;;5027809;28;20202;-58
2023/06/22 11:11:17;;;;;;;10.63;5.80;;;37.30;33.80;;;;;;5018689;28;20243;-57
2023/06/22 11:13:43;;;;;;;14.03;6.20;;;37.50;33.80;;;;;;5026574;28;20258;-58
2023/06/22 11:16:10;;;;;;;10.67;6.53;;;37.70;33.80;;;;;;5026207;28;20456;-58
2023/06/22 11:18:36;;;;;;;11.13;7.00;;;37.50;34.00;;;;;;5010891;28;20276;-58
2023/06/22 11:21:01;;;;;;;10.43;6.00;;;37.60;33.80;;;;;;5022466;28;20522;-58
2023/06/22 11:23:28;;;;;;;8.07;6.03;;;37.70;33.40;;;;;;5029800;28;20258;-58
2023/06/22 11:25:54;;;;;;;9.13;6.30;;;37.70;33.40;;;;;;5027637;28;20201;-57
2023/06/22 11:28:19;;;;;;;17.80;6.60;;;37.80;33.40;;;;;;5027735;28;20458;-57
2023/06/22 11:30:45;;;;;;;17.30;6.80;;;38.00;33.20;;;;;;5029671;28;20444;-58
2023/06/22 11:33:11;;;;;;;21.07;8.00;;;37.60;32.80;;;;;;5021371;28;20230;-58
2023/06/22 11:35:36;;;;;;;19.10;7.20;;;37.20;33.60;;;;;;5024234;28;20266;-57
2023/06/22 11:38:03;;;;;;;12.23;6.73;;;36.80;34.50;;;;;;5015271;28;20189;-57
2023/06/22 11:40:29;;;;;;;50.77;12.20;;;37.00;34.90;;;;;;5027198;28;20631;-58
2023/06/22 11:42:55;;;;;;;15.20;7.57;;;37.10;34.20;;;;;;5025410;28;20451;-58
2023/06/22 11:45:20;;;;;;;35.83;8.97;;;37.00;34.40;;;;;;5021401;28;20202;-57
2023/06/22 11:47:46;;;;;;;8.23;6.77;;;37.10;34.70;;;;;;5017612;28;20197;-58
2023/06/22 11:50:12;;;;;;;12.60;6.57;;;37.00;35.00;;;;;;5024114;28;20193;-57
2023/06/22 11:52:38;;;;;;;15.50;6.70;;;37.20;34.80;;;;;;5020930;28;20256;-57
2023/06/22 11:55:05;;;;;;;43.70;10.43;;;37.40;34.80;;;;;;5026829;28;21962;-57
2023/06/22 11:57:32;;;;;;;75.30;17.47;;;37.40;35.00;;;;;;5020974;28;20185;-57
2023/06/22 11:59:58;;;;;;;18.77;8.07;;;37.60;34.40;;;;;;5019723;28;20446;-57
2023/06/22 12:02:24;;;;;;;11.53;6.57;;;37.60;34.00;;;;;;5024398;28;20531;-59
2023/06/22 12:04:52;;;;;;;49.17;12.03;;;37.70;34.40;;;;;;5022139;28;20210;-58
2023/06/22 12:07:18;;;;;;;31.30;10.37;;;37.70;34.70;;;;;;5020044;28;20287;-58
2023/06/22 12:09:43;;;;;;;33.63;9.97;;;37.70;34.50;;;;;;5020714;28;20538;-58
2023/06/22 12:12:09;;;;;;;11.63;7.10;;;37.90;34.20;;;;;;5025530;28;20243;-58
2023/06/22 12:14:35;;;;;;;8.77;6.10;;;38.00;33.60;;;;;;5022946;28;20209;-58
2023/06/22 12:17:01;;;;;;;8.33;7.13;;;38.00;33.90;;;;;;5024263;28;20706;-58
2023/06/22 12:19:26;;;;;;;8.90;6.57;;;38.10;34.80;;;;;;5016191;28;20272;-58
2023/06/22 12:21:52;;;;;;;68.03;18.27;;;38.00;34.60;;;;;;5014390;28;20209;-58
2023/06/22 12:24:18;;;;;;;13.60;7.70;;;38.00;34.60;;;;;;5019208;28;20185;-58
2023/06/22 12:26:44;;;;;;;9.67;6.10;;;37.90;34.70;;;;;;5022438;28;20207;-58
2023/06/22 12:29:09;;;;;;;11.00;7.30;;;37.90;34.70;;;;;;5010702;28;20203;-58
2023/06/22 12:31:38;;;;;;;10.27;6.40;;;37.90;34.40;;;;;;5025380;28;20189;-58
2023/06/22 12:34:04;;;;;;;11.77;6.80;;;37.90;34.40;;;;;;5015625;28;20256;-58
2023/06/22 12:36:29;;;;;;;13.13;7.10;;;38.00;34.20;;;;;;5024591;28;20467;-58
2023/06/22 12:38:55;;;;;;;10.30;7.30;;;38.00;34.70;;;;;;5021691;28;20337;-58
2023/06/22 12:41:21;;;;;;;10.77;6.40;;;37.90;34.70;;;;;;5022097;28;21002;-58